createdAt,value
2023-04-15T00:01:34.638Z,25.17
2023-04-15T00:04:01.975Z,23.83
2023-04-15T00:06:29.124Z,29.02
2023-04-15T00:08:55.904Z,22.92
2023-04-15T00:11:24.447Z,23.77
2023-04-15T00:13:51.324Z,24.42
2023-04-15T00:16:18.235Z,24.60
2023-04-15T00:18:45.200Z,21.50
2023-04-15T00:21:12.005Z,21.88
2023-04-15T00:23:38.954Z,22.55
2023-04-15T00:26:05.772Z,23.00
2023-04-15T00:28:32.696Z,25.42
2023-04-15T00:30:59.530Z,20.70
2023-04-15T00:33:26.874Z,23.65
2023-04-15T00:35:53.875Z,21.77
2023-04-15T00:38:20.825Z,24.60
2023-04-15T00:40:47.738Z,21.08
2023-04-15T00:43:14.647Z,23.95
2023-04-15T00:45:41.493Z,24.13
2023-04-15T00:48:10.432Z,20.88
2023-04-15T00:50:37.221Z,23.40
2023-04-15T00:53:04.090Z,20.67
2023-04-15T00:55:31.811Z,21.48
2023-04-15T00:57:59.208Z,21.08
2023-04-15T01:00:26.916Z,22.08
2023-04-15T01:02:53.923Z,20.33
2023-04-15T01:05:20.850Z,22.02
2023-04-15T01:07:48.943Z,23.25
2023-04-15T01:10:15.874Z,25.55
2023-04-15T01:12:43.447Z,21.80
2023-04-15T01:15:11.215Z,22.92
2023-04-15T01:17:39.413Z,22.50
2023-04-15T01:20:10.181Z,21.63
2023-04-15T01:22:38.428Z,23.60
2023-04-15T01:25:13.828Z,22.98
2023-04-15T01:27:42.421Z,23.45
2023-04-15T01:30:10.658Z,23.67
2023-04-15T01:32:37.984Z,23.80
2023-04-15T01:35:05.342Z,23.63
2023-04-15T01:37:32.697Z,24.98
2023-04-15T01:39:59.788Z,27.05
2023-04-15T01:42:26.612Z,25.38
2023-04-15T01:44:53.842Z,25.83
2023-04-15T01:47:20.887Z,24.45
2023-04-15T01:49:48.007Z,25.70
2023-04-15T01:52:14.805Z,24.45
2023-04-15T01:54:41.892Z,22.67
2023-04-15T01:57:08.653Z,23.20
2023-04-15T01:59:36.259Z,23.85
2023-04-15T02:02:03.235Z,22.67
2023-04-15T02:04:30.352Z,26.10
2023-04-15T02:07:00.816Z,21.73
2023-04-15T02:09:28.076Z,24.95
2023-04-15T02:11:54.988Z,24.20
2023-04-15T02:14:22.221Z,24.85
2023-04-15T02:16:49.235Z,22.75
2023-04-15T02:19:16.454Z,24.08
2023-04-15T02:21:43.359Z,22.75
2023-04-15T02:24:10.480Z,21.73
2023-04-15T02:26:37.460Z,20.27
2023-04-15T02:29:04.396Z,20.42
2023-04-15T02:31:34.197Z,20.10
2023-04-15T02:34:03.136Z,21.92
2023-04-15T02:36:32.003Z,19.27
2023-04-15T02:38:59.033Z,18.90
2023-04-15T02:41:28.511Z,22.40
2023-04-15T02:43:55.929Z,19.60
2023-04-15T02:46:23.222Z,19.90
2023-04-15T02:48:51.052Z,19.55
2023-04-15T02:51:20.418Z,19.05
2023-04-15T02:53:48.663Z,21.10
2023-04-15T02:56:16.029Z,20.90
2023-04-15T02:58:45.201Z,18.65
2023-04-15T03:01:12.266Z,21.88
2023-04-15T03:03:40.161Z,20.52
2023-04-15T03:06:07.069Z,18.85
2023-04-15T03:08:34.376Z,18.27
2023-04-15T03:11:02.686Z,18.17
2023-04-15T03:13:29.903Z,19.10
2023-04-15T03:15:58.505Z,18.55
2023-04-15T03:18:25.449Z,19.00
2023-04-15T03:20:52.302Z,18.33
2023-04-15T03:23:19.198Z,18.10
2023-04-15T03:25:46.274Z,18.90
2023-04-15T03:28:14.708Z,19.42
2023-04-15T03:30:41.875Z,18.60
2023-04-15T03:33:09.492Z,20.45
2023-04-15T03:35:36.991Z,19.95
2023-04-15T03:38:03.859Z,19.90
2023-04-15T03:40:30.809Z,20.50
2023-04-15T03:42:57.703Z,19.42
2023-04-15T03:45:24.530Z,19.50
2023-04-15T03:47:51.728Z,19.38
2023-04-15T03:50:18.649Z,20.70
2023-04-15T03:52:45.859Z,18.35
2023-04-15T03:55:12.787Z,18.10
2023-04-15T03:57:39.946Z,18.60
2023-04-15T04:00:08.061Z,19.55
2023-04-15T04:05:06.448Z,21.05
2023-04-15T04:07:33.272Z,19.60
2023-04-15T04:10:00.126Z,20.45
2023-04-15T04:12:27.016Z,22.40
2023-04-15T04:14:53.809Z,20.10
2023-04-15T04:17:20.690Z,18.75
2023-04-15T04:19:47.529Z,20.70
2023-04-15T04:22:14.430Z,20.48
2023-04-15T04:24:41.330Z,18.85
2023-04-15T04:27:08.254Z,20.02
2023-04-15T04:29:35.128Z,18.92
2023-04-15T04:32:02.063Z,21.73
2023-04-15T04:34:28.886Z,21.05
2023-04-15T04:36:55.807Z,21.10
2023-04-15T04:39:22.686Z,20.67
2023-04-15T04:41:50.211Z,21.73
2023-04-15T04:44:17.062Z,24.00
2023-04-15T04:46:43.995Z,22.40
2023-04-15T04:49:10.896Z,20.70
2023-04-15T04:51:37.819Z,21.42
2023-04-15T04:54:04.614Z,24.15
2023-04-15T04:56:31.481Z,23.42
2023-04-15T04:58:58.355Z,22.42
2023-04-15T05:01:26.765Z,20.92
2023-04-15T05:03:53.821Z,23.15
2023-04-15T05:06:20.895Z,24.33
2023-04-15T05:08:48.410Z,22.17
2023-04-15T05:11:15.247Z,23.33
2023-04-15T05:13:42.222Z,25.00
2023-04-15T05:16:09.603Z,22.48
2023-04-15T05:18:36.959Z,24.85
2023-04-15T05:21:03.961Z,21.83
2023-04-15T05:23:31.133Z,22.85
2023-04-15T05:25:58.044Z,21.60
2023-04-15T05:28:24.942Z,22.45
2023-04-15T05:30:51.882Z,22.42
2023-04-15T05:33:19.200Z,25.95
2023-04-15T05:35:46.362Z,22.83
2023-04-15T05:38:13.295Z,22.67
2023-04-15T05:40:40.121Z,22.70
2023-04-15T05:43:07.063Z,23.95
2023-04-15T05:45:33.829Z,21.27
2023-04-15T05:48:00.771Z,22.52
2023-04-15T05:50:27.615Z,25.58
2023-04-15T05:52:54.569Z,22.08
2023-04-15T05:55:22.247Z,23.67
2023-04-15T05:57:49.107Z,21.83
2023-04-15T06:00:16.532Z,25.90
2023-04-15T06:02:43.615Z,21.23
2023-04-15T06:05:11.942Z,21.17
2023-04-15T06:07:38.949Z,21.63
2023-04-15T06:10:06.535Z,23.63
2023-04-15T06:12:33.517Z,24.83
2023-04-15T06:15:00.586Z,22.95
2023-04-15T06:17:27.595Z,22.75
2023-04-15T06:19:55.898Z,24.92
2023-04-15T06:22:23.591Z,20.63
2023-04-15T06:24:51.623Z,23.75
2023-04-15T06:27:18.887Z,22.83
2023-04-15T06:29:45.719Z,20.88
2023-04-15T06:32:13.239Z,20.35
2023-04-15T06:34:40.101Z,20.92
2023-04-15T06:37:07.181Z,23.95
2023-04-15T06:39:34.018Z,22.55
2023-04-15T06:42:01.750Z,20.27
2023-04-15T06:44:30.092Z,23.70
2023-04-15T06:46:58.089Z,20.10
2023-04-15T06:49:24.882Z,19.10
2023-04-15T06:51:51.763Z,19.02
2023-04-15T06:54:18.908Z,20.63
2023-04-15T06:56:45.812Z,21.00
2023-04-15T06:59:13.064Z,20.67
2023-04-15T07:01:42.063Z,22.02
2023-04-15T07:04:09.007Z,18.88
2023-04-15T07:06:35.864Z,17.73
2023-04-15T07:09:03.679Z,17.83
2023-04-15T07:11:31.071Z,20.52
2023-04-15T07:13:58.698Z,20.40
2023-04-15T07:16:27.878Z,18.25
2023-04-15T07:18:56.240Z,18.00
2023-04-15T07:21:24.063Z,17.15
2023-04-15T07:23:51.150Z,16.90
2023-04-15T07:26:18.104Z,16.77
2023-04-15T07:28:46.411Z,17.65
2023-04-15T07:31:13.980Z,17.73
2023-04-15T07:33:40.758Z,18.80
2023-04-15T07:36:08.011Z,15.02
2023-04-15T07:38:34.949Z,17.27
2023-04-15T07:41:01.756Z,18.05
2023-04-15T07:43:29.884Z,17.88
2023-04-15T07:45:56.709Z,16.38
2023-04-15T07:48:23.554Z,16.90
2023-04-15T07:50:50.411Z,15.77
2023-04-15T07:53:17.283Z,15.55
2023-04-15T07:55:44.099Z,16.58
2023-04-15T07:58:11.027Z,14.15
2023-04-15T08:00:38.617Z,15.05
2023-04-15T08:03:06.105Z,16.67
2023-04-15T08:05:33.296Z,15.65
2023-04-15T08:08:00.329Z,16.90
2023-04-15T08:10:27.418Z,19.30
2023-04-15T08:12:55.094Z,15.18
2023-04-15T08:15:22.382Z,15.77
2023-04-15T08:17:49.297Z,14.40
2023-04-15T08:20:16.248Z,16.15
2023-04-15T08:22:43.167Z,14.77
2023-04-15T08:25:10.527Z,15.38
2023-04-15T08:27:45.791Z,13.55
2023-04-15T08:30:13.166Z,14.05
2023-04-15T08:32:40.255Z,16.33
2023-04-15T08:35:07.964Z,14.13
2023-04-15T08:37:34.974Z,13.43
2023-04-15T08:40:01.768Z,12.68
2023-04-15T08:42:35.288Z,14.20
2023-04-15T08:45:04.792Z,13.10
2023-04-15T08:47:32.212Z,14.10
2023-04-15T08:49:59.690Z,15.93
2023-04-15T08:52:27.112Z,16.80
2023-04-15T08:54:59.042Z,14.18
2023-04-15T08:57:30.163Z,15.80
2023-04-15T08:59:57.832Z,13.55
2023-04-15T09:02:28.787Z,18.10
2023-04-15T09:04:56.831Z,14.98
2023-04-15T09:07:23.681Z,15.05
2023-04-15T09:09:51.506Z,11.60
2023-04-15T09:12:18.399Z,13.77
2023-04-15T09:14:47.358Z,16.20
2023-04-15T09:17:19.185Z,11.73
2023-04-15T09:22:13.870Z,12.63
2023-04-15T09:24:42.339Z,14.68
2023-04-15T09:27:09.406Z,12.75
2023-04-15T09:29:37.302Z,14.23
2023-04-15T09:32:16.508Z,13.65
2023-04-15T09:34:43.756Z,15.85
2023-04-15T09:37:11.366Z,11.88
2023-04-15T09:39:50.134Z,12.43
2023-04-15T09:42:24.059Z,12.32
2023-04-15T09:44:52.775Z,12.82
2023-04-15T09:47:30.225Z,13.27
2023-04-15T09:49:58.303Z,14.20
2023-04-15T09:52:25.256Z,13.07
2023-04-15T09:54:55.111Z,14.30
2023-04-15T09:57:22.172Z,13.82
2023-04-15T09:59:49.072Z,14.52
2023-04-15T10:02:16.609Z,12.80
2023-04-15T10:04:43.582Z,13.60
2023-04-15T10:07:12.726Z,13.07
2023-04-15T10:09:39.982Z,14.10
2023-04-15T10:12:07.436Z,13.23
2023-04-15T10:14:38.911Z,13.93
2023-04-15T10:17:06.150Z,13.40
2023-04-15T10:19:34.303Z,14.80
2023-04-15T10:22:01.328Z,16.40
2023-04-15T10:24:28.564Z,15.18
2023-04-15T10:26:55.705Z,14.88
2023-04-15T10:29:24.332Z,14.55
2023-04-15T10:31:51.816Z,15.30
2023-04-15T10:34:18.802Z,16.25
2023-04-15T10:36:47.132Z,13.13
2023-04-15T10:39:42.170Z,13.73
2023-04-15T10:42:14.089Z,13.70
2023-04-15T10:44:45.942Z,13.98
2023-04-15T10:49:45.779Z,13.80
2023-04-15T10:52:12.963Z,14.30
2023-04-15T10:54:39.933Z,15.73
2023-04-15T10:57:09.700Z,17.42
2023-04-15T10:59:38.684Z,21.38
2023-04-15T11:02:07.514Z,12.23
2023-04-15T11:04:57.952Z,12.70
2023-04-15T11:07:54.837Z,15.88
2023-04-15T11:10:57.180Z,12.73
2023-04-15T11:15:56.863Z,12.00
2023-04-15T11:18:30.669Z,11.32
2023-04-15T11:21:01.263Z,10.45
2023-04-15T11:23:31.549Z,11.20
2023-04-15T11:26:00.021Z,11.57
2023-04-15T11:28:28.486Z,12.70
2023-04-15T11:30:56.125Z,11.63
2023-04-15T11:33:24.213Z,9.68
2023-04-15T11:35:53.677Z,10.88
2023-04-15T11:38:20.529Z,11.63
2023-04-15T11:40:47.520Z,11.15
2023-04-15T11:43:16.750Z,12.18
2023-04-15T11:45:55.970Z,10.75
2023-04-15T11:48:25.617Z,11.13
2023-04-15T11:51:00.436Z,11.77
2023-04-15T11:53:47.880Z,11.10
2023-04-15T11:56:25.649Z,11.63
2023-04-15T11:58:57.067Z,12.32
2023-04-15T12:01:46.604Z,12.57
2023-04-15T12:04:15.431Z,14.45
2023-04-15T12:06:42.362Z,14.52
2023-04-15T12:09:17.331Z,10.90
2023-04-15T12:11:49.723Z,11.40
2023-04-15T12:14:35.234Z,11.82
2023-04-15T12:17:04.883Z,10.40
2023-04-15T12:19:40.228Z,10.52
2023-04-15T12:22:12.402Z,11.15
2023-04-15T12:24:39.799Z,11.10
2023-04-15T12:27:08.190Z,11.90
2023-04-15T12:29:36.947Z,11.90
2023-04-15T12:32:08.668Z,12.35
2023-04-15T12:34:43.032Z,11.88
2023-04-15T12:37:11.946Z,11.20
2023-04-15T12:39:41.272Z,13.82
2023-04-15T12:42:09.050Z,12.23
2023-04-15T12:44:37.277Z,15.63
2023-04-15T12:47:04.695Z,24.63
2023-04-15T12:49:32.919Z,16.63
2023-04-15T12:52:01.121Z,10.70
2023-04-15T12:54:29.360Z,11.50
2023-04-15T12:56:56.728Z,17.67
2023-04-15T12:59:26.700Z,11.00
2023-04-15T13:01:54.406Z,10.88
2023-04-15T13:04:22.328Z,10.35
2023-04-15T13:06:49.856Z,10.45
2023-04-15T13:09:16.943Z,17.50
2023-04-15T13:11:43.997Z,10.55
2023-04-15T13:14:14.073Z,11.48
2023-04-15T13:16:41.584Z,11.43
2023-04-15T13:19:08.656Z,11.25
2023-04-15T13:21:36.435Z,10.27
2023-04-15T13:24:04.526Z,13.63
2023-04-15T13:26:32.150Z,9.88
2023-04-15T13:28:59.537Z,12.32
2023-04-15T13:31:27.324Z,11.63
2023-04-15T13:33:54.524Z,10.48
2023-04-15T13:36:21.496Z,10.43
2023-04-15T13:38:51.012Z,10.80
2023-04-15T13:41:18.659Z,14.20
2023-04-15T13:43:45.701Z,10.93
2023-04-15T13:46:12.849Z,12.02
2023-04-15T13:48:39.881Z,13.63
2023-04-15T13:51:06.792Z,14.82
2023-04-15T13:53:39.145Z,11.95
2023-04-15T13:56:07.972Z,11.15
2023-04-15T13:58:34.937Z,8.93
2023-04-15T14:01:04.702Z,10.82
2023-04-15T14:03:33.358Z,13.82
2023-04-15T14:06:00.389Z,12.55
2023-04-15T14:08:27.323Z,13.07
2023-04-15T14:10:54.240Z,11.90
2023-04-15T14:13:21.104Z,11.30
2023-04-15T14:15:47.975Z,11.55
2023-04-15T14:18:14.971Z,11.05
2023-04-15T14:20:42.013Z,12.60
2023-04-15T14:23:08.861Z,15.07
2023-04-15T14:25:35.779Z,12.93
2023-04-15T14:28:03.559Z,15.75
2023-04-15T14:30:30.663Z,12.77
2023-04-15T14:32:57.680Z,14.50
2023-04-15T14:35:26.807Z,12.43
2023-04-15T14:37:54.568Z,12.82
2023-04-15T14:40:22.556Z,14.20
2023-04-15T14:42:49.577Z,12.43
2023-04-15T14:45:16.681Z,16.98
2023-04-15T14:47:44.049Z,14.40
2023-04-15T14:50:11.102Z,16.20
2023-04-15T14:52:41.045Z,16.02
2023-04-15T14:55:10.443Z,13.00
2023-04-15T14:57:38.284Z,26.33
2023-04-15T15:00:07.117Z,13.48
2023-04-15T15:02:39.125Z,14.35
2023-04-15T15:05:08.819Z,12.23
2023-04-15T15:07:37.383Z,13.15
2023-04-15T15:10:05.386Z,13.90
2023-04-15T15:12:33.016Z,16.75
2023-04-15T15:15:01.522Z,10.98
2023-04-15T15:17:28.692Z,13.63
2023-04-15T15:19:55.554Z,11.20
2023-04-15T15:22:22.368Z,12.07
2023-04-15T15:24:49.365Z,11.52
2023-04-15T15:27:16.241Z,12.65
2023-04-15T15:29:43.103Z,12.50
2023-04-15T15:32:09.925Z,12.60
2023-04-15T15:34:36.784Z,12.10
2023-04-15T15:37:03.595Z,14.90
2023-04-15T15:39:30.512Z,10.95
2023-04-15T15:41:57.439Z,11.88
2023-04-15T15:44:24.288Z,12.32
2023-04-15T15:46:51.299Z,13.32
2023-04-15T15:49:18.274Z,12.55
2023-04-15T15:51:46.010Z,14.88
2023-04-15T15:54:13.193Z,17.88
2023-04-15T15:56:40.174Z,14.57
2023-04-15T15:59:07.088Z,14.02
2023-04-15T16:01:34.127Z,12.52
2023-04-15T16:04:01.430Z,12.45
2023-04-15T16:06:28.839Z,15.05
2023-04-15T16:08:55.799Z,12.73
2023-04-15T16:11:23.430Z,13.75
2023-04-15T16:13:50.331Z,18.27
2023-04-15T16:16:17.211Z,11.77
2023-04-15T16:18:44.080Z,10.45
2023-04-15T16:21:10.935Z,11.68
2023-04-15T16:23:38.397Z,10.10
2023-04-15T16:26:05.499Z,9.23
2023-04-15T16:28:32.457Z,11.02
2023-04-15T16:30:59.993Z,11.93
2023-04-15T16:33:27.007Z,22.48
2023-04-15T16:35:53.866Z,11.25
2023-04-15T16:38:20.945Z,11.02
2023-04-15T16:40:47.861Z,10.38
2023-04-15T16:43:14.711Z,12.55
2023-04-15T16:45:41.704Z,12.05
2023-04-15T16:48:08.569Z,14.32
2023-04-15T16:50:37.213Z,13.98
2023-04-15T16:53:04.060Z,17.08
2023-04-15T16:55:57.264Z,17.42
2023-04-15T16:58:25.444Z,25.75
2023-04-15T17:00:52.593Z,14.73
2023-04-15T17:03:19.716Z,15.35
2023-04-15T17:05:46.569Z,18.70
2023-04-15T17:08:13.698Z,14.30
2023-04-15T17:10:40.546Z,17.60
2023-04-15T17:13:07.418Z,20.73
2023-04-15T17:15:34.652Z,11.70
2023-04-15T17:18:02.253Z,10.68
2023-04-15T17:20:30.135Z,18.52
2023-04-15T17:22:57.740Z,17.92
2023-04-15T17:25:24.628Z,20.10
2023-04-15T17:27:51.452Z,18.45
2023-04-15T17:30:19.268Z,22.45
2023-04-15T17:32:46.331Z,24.35
2023-04-15T17:35:13.483Z,16.05
2023-04-15T17:37:42.008Z,16.02
2023-04-15T17:40:11.570Z,13.98
2023-04-15T17:42:39.298Z,14.27
2023-04-15T17:45:08.792Z,14.35
2023-04-15T17:47:49.858Z,14.82
2023-04-15T17:50:18.807Z,14.90
2023-04-15T17:52:48.393Z,16.48
2023-04-15T17:55:16.325Z,15.75
2023-04-15T17:57:48.478Z,19.30
2023-04-15T18:00:19.079Z,17.70
2023-04-15T18:02:49.761Z,17.63
2023-04-15T18:05:22.581Z,14.73
2023-04-15T18:07:53.675Z,17.73
2023-04-15T18:10:22.282Z,15.00
2023-04-15T18:12:56.967Z,13.63
2023-04-15T18:15:26.581Z,18.23
2023-04-15T18:17:55.365Z,17.70
2023-04-15T18:20:22.285Z,16.23
2023-04-15T18:22:49.223Z,12.60
2023-04-15T18:25:16.040Z,8.25
2023-04-15T18:27:43.032Z,7.45
2023-04-15T18:30:11.170Z,6.88
2023-04-15T18:32:38.586Z,5.25
2023-04-15T18:35:06.080Z,5.22
2023-04-15T18:37:33.189Z,5.60
2023-04-15T18:40:00.064Z,5.30
2023-04-15T18:42:27.065Z,5.07
2023-04-15T18:44:54.606Z,4.30
2023-04-15T18:47:21.481Z,4.45
2023-04-15T18:49:48.475Z,4.20
2023-04-15T18:52:15.266Z,4.32
2023-04-15T18:54:42.166Z,4.88
2023-04-15T18:57:09.008Z,4.85
2023-04-15T18:59:36.316Z,4.38
2023-04-15T19:02:06.568Z,5.10
2023-04-15T19:04:33.824Z,4.93
2023-04-15T19:07:01.906Z,6.60
2023-04-15T19:09:29.411Z,5.22
2023-04-15T19:11:56.961Z,5.70
2023-04-15T19:14:23.979Z,6.00
2023-04-15T19:16:53.572Z,5.05
2023-04-15T19:19:24.672Z,5.80
2023-04-15T19:21:54.790Z,5.35
2023-04-15T19:24:24.455Z,5.50
2023-04-15T19:26:53.638Z,5.68
2023-04-15T19:29:24.578Z,5.15
2023-04-15T19:31:56.260Z,5.75
2023-04-15T19:34:29.648Z,5.82
2023-04-15T19:37:01.459Z,6.28
2023-04-15T19:39:35.764Z,6.03
2023-04-15T19:42:04.647Z,6.03
2023-04-15T19:44:33.662Z,7.20
2023-04-15T19:47:08.658Z,7.85
2023-04-15T19:49:42.478Z,8.77
2023-04-15T19:52:16.188Z,8.57
2023-04-15T19:54:47.112Z,10.23
2023-04-15T19:57:16.932Z,6.88
2023-04-15T19:59:46.415Z,7.55
2023-04-15T20:02:17.903Z,7.57
2023-04-15T20:04:47.690Z,7.40
2023-04-15T20:07:15.125Z,7.68
2023-04-15T20:09:43.929Z,7.90
2023-04-15T20:12:50.054Z,7.03
2023-04-15T20:14:57.696Z,8.65
2023-04-15T20:17:24.626Z,8.93
2023-04-15T20:19:51.641Z,9.35
2023-04-15T20:22:18.477Z,9.73
2023-04-15T20:24:45.557Z,10.05
2023-04-15T20:27:12.472Z,9.60
2023-04-15T20:29:39.431Z,9.35
2023-04-15T20:32:06.915Z,9.43
2023-04-15T20:34:34.117Z,9.95
2023-04-15T20:37:00.944Z,9.20
2023-04-15T20:39:27.746Z,9.45
2023-04-15T20:41:54.644Z,9.35
2023-04-15T20:44:21.635Z,10.35
2023-04-15T20:46:48.618Z,10.48
2023-04-15T20:49:15.471Z,9.23
2023-04-15T20:51:42.310Z,9.07
2023-04-15T20:54:09.140Z,9.15
2023-04-15T20:56:35.972Z,9.57
2023-04-15T20:59:03.099Z,9.07
2023-04-15T21:01:30.168Z,8.23
2023-04-15T21:03:58.534Z,9.40
2023-04-15T21:06:27.203Z,9.23
2023-04-15T21:08:54.041Z,8.30
2023-04-15T21:11:38.786Z,8.07
2023-04-15T21:14:11.014Z,7.10
2023-04-15T21:16:37.896Z,7.63
2023-04-15T21:19:05.171Z,8.70
2023-04-15T21:21:32.348Z,8.35
2023-04-15T21:23:59.525Z,8.77
2023-04-15T21:26:26.482Z,8.93
2023-04-15T21:28:53.356Z,8.88
2023-04-15T21:31:20.878Z,8.93
2023-04-15T21:33:47.780Z,9.15
2023-04-15T21:36:14.825Z,9.10
2023-04-15T21:38:41.620Z,8.98
2023-04-15T21:41:09.841Z,9.23
2023-04-15T21:43:37.267Z,9.38
2023-04-15T21:46:21.226Z,8.80
2023-04-15T21:48:51.612Z,9.25
2023-04-15T21:51:18.412Z,9.13
2023-04-15T21:53:45.212Z,9.88
2023-04-15T21:56:12.099Z,9.60
2023-04-15T21:58:38.928Z,9.50
2023-04-15T22:01:06.093Z,9.10
2023-04-15T22:03:34.839Z,8.70
2023-04-15T22:06:03.188Z,9.45
2023-04-15T22:08:41.258Z,10.18
2023-04-15T22:11:28.769Z,9.60
2023-04-15T22:13:57.601Z,9.60
2023-04-15T22:16:25.877Z,10.77
2023-04-15T22:18:53.042Z,12.25
2023-04-15T22:21:19.890Z,12.18
2023-04-15T22:23:48.480Z,11.88
2023-04-15T22:26:15.695Z,15.20
2023-04-15T22:28:42.648Z,12.60
2023-04-15T22:31:09.593Z,11.73
2023-04-15T22:33:36.599Z,12.07
2023-04-15T22:36:03.569Z,9.95
2023-04-15T22:38:30.579Z,9.65
2023-04-15T22:40:58.520Z,10.05
2023-04-15T22:43:26.160Z,10.63
2023-04-15T22:45:55.028Z,10.60
2023-04-15T22:48:22.322Z,11.07
2023-04-15T22:50:50.147Z,11.93
2023-04-15T22:53:18.278Z,11.13
2023-04-15T22:55:46.849Z,12.05
2023-04-15T22:58:14.186Z,11.77
2023-04-15T23:00:41.171Z,11.35
2023-04-15T23:03:08.300Z,11.95
2023-04-15T23:05:35.509Z,13.15
2023-04-15T23:08:02.540Z,12.90
2023-04-15T23:10:30.071Z,13.98
2023-04-15T23:12:57.129Z,14.32
2023-04-15T23:15:24.016Z,16.23
2023-04-15T23:17:51.127Z,16.27
2023-04-15T23:20:18.114Z,17.20
2023-04-15T23:22:45.429Z,17.60
2023-04-15T23:25:12.331Z,16.60
2023-04-15T23:27:39.273Z,15.43
2023-04-15T23:30:07.082Z,14.25
2023-04-15T23:32:33.963Z,15.50
2023-04-15T23:35:01.068Z,14.63
2023-04-15T23:37:30.842Z,14.45
2023-04-15T23:39:57.815Z,15.30
2023-04-15T23:42:24.770Z,15.13
2023-04-15T23:44:51.740Z,13.77
2023-04-15T23:47:18.585Z,12.30
2023-04-15T23:49:45.560Z,13.07
2023-04-15T23:52:12.462Z,13.73
2023-04-15T23:54:40.047Z,13.50
2023-04-15T23:57:06.831Z,13.88
2023-04-15T23:59:33.808Z,13.05
